Time,TemperatureF,DewpointF,PressureIn,WindDirection,WindDirectionDegrees,WindSpeedMPH,WindSpeedGustMPH,Humidity,HourlyPrecipIn,Conditions,Clouds,dailyrainin,SoftwareType,DateUTC
2013-02-08 00:00:00,70.9,62.9,29.83,WSW,247,3.6,3.6,70,0.00,,,-99.99,Homeseer,2013-02-08 05:00:00,
2013-02-08 00:10:00,70.9,63.2,29.83,South,180,2.0,0.0,71,0.00,,,-99.99,Homeseer,2013-02-08 05:10:00,
2013-02-08 00:20:00,70.9,63.5,29.83,NNE,22,1.3,2.0,72,0.00,,,-99.99,Homeseer,2013-02-08 05:20:00,
2013-02-08 00:30:00,70.9,63.5,29.80,North,0,1.3,1.3,72,0.00,,,-99.99,Homeseer,2013-02-08 05:30:00,
2013-02-08 00:40:00,70.9,63.8,29.80,NNE,22,0.0,0.0,73,0.00,,,-99.99,Homeseer,2013-02-08 05:40:00,
2013-02-08 00:50:00,70.7,63.9,29.80,North,0,2.0,2.0,74,0.00,,,-99.99,Homeseer,2013-02-08 05:50:00,
2013-02-08 01:00:00,70.7,64.2,29.80,North,0,0.0,0.0,75,0.00,,,-99.99,Homeseer,2013-02-08 06:00:00,
2013-02-08 01:10:00,70.9,64.7,29.80,NNE,22,2.0,2.0,76,0.00,,,-99.99,Homeseer,2013-02-08 06:10:00,
2013-02-08 01:20:00,70.9,65.3,29.80,North,0,0.0,0.0,78,0.00,,,-99.99,Homeseer,2013-02-08 06:20:00,
2013-02-08 01:30:00,70.7,65.9,29.80,NW,315,1.3,1.3,81,0.00,,,-99.99,Homeseer,2013-02-08 06:30:00,
2013-02-08 01:40:00,70.7,66.5,29.80,WSW,247,2.5,2.5,83,0.00,,,-99.99,Homeseer,2013-02-08 06:40:00,
2013-02-08 01:50:00,70.5,66.0,29.80,North,0,0.0,0.0,82,0.00,,,-99.99,Homeseer,2013-02-08 06:50:00,
2013-02-08 02:00:00,70.5,66.3,29.80,WNW,297,0.0,0.0,83,0.00,,,-99.99,Homeseer,2013-02-08 07:00:00,
2013-02-08 02:10:00,70.5,66.3,29.80,North,0,0.0,4.3,83,0.00,,,-99.99,Homeseer,2013-02-08 07:10:00,
2013-02-08 02:20:00,70.5,66.3,29.80,WNW,297,1.3,1.3,83,0.00,,,-99.99,Homeseer,2013-02-08 07:20:00,
2013-02-08 02:30:00,70.5,66.3,29.77,NE,45,2.0,0.0,83,0.00,,,-99.99,Homeseer,2013-02-08 07:30:00,
2013-02-08 02:40:00,70.5,66.5,29.77,ENE,67,1.6,2.7,84,0.00,,,-99.99,Homeseer,2013-02-08 07:40:00,
2013-02-08 02:50:00,70.5,67.1,29.77,West,270,1.3,0.0,86,0.00,,,-99.99,Homeseer,2013-02-08 07:50:00,
2013-02-08 03:00:00,70.5,66.8,29.80,WNW,297,0.9,0.0,85,0.00,,,-99.99,Homeseer,2013-02-08 08:00:00,
2013-02-08 03:10:00,70.3,66.6,29.80,North,0,1.3,1.6,85,0.00,,,-99.99,Homeseer,2013-02-08 08:10:00,
2013-02-08 03:20:00,70.3,66.9,29.80,WNW,297,1.6,0.0,86,0.00,,,-99.99,Homeseer,2013-02-08 08:20:00,
2013-02-08 03:30:00,70.2,67.0,29.80,South,180,0.0,0.0,87,0.00,,,-99.99,Homeseer,2013-02-08 08:30:00,
2013-02-08 03:40:00,70.2,67.3,29.80,SSE,157,1.1,0.0,88,0.00,,,-99.99,Homeseer,2013-02-08 08:40:00,
2013-02-08 03:50:00,70.2,67.3,29.80,NNE,22,1.3,0.0,88,0.00,,,-99.99,Homeseer,2013-02-08 08:50:00,
2013-02-08 04:00:00,70.0,67.6,29.80,East,90,0.9,3.6,90,0.00,,,-99.99,Homeseer,2013-02-08 09:00:00,
2013-02-08 04:10:00,70.0,67.9,29.80,North,0,2.5,2.5,91,0.00,,,-99.99,Homeseer,2013-02-08 09:10:00,
2013-02-08 04:20:00,70.0,67.9,29.80,WNW,297,0.0,3.4,91,0.00,,,-99.99,Homeseer,2013-02-08 09:20:00,
2013-02-08 04:30:00,70.0,68.1,29.80,North,0,0.0,1.3,92,0.00,,,-99.99,Homeseer,2013-02-08 09:30:00,
2013-02-08 04:40:00,70.0,68.1,29.80,North,0,0.0,0.0,92,0.00,,,-99.99,Homeseer,2013-02-08 09:40:00,
2013-02-08 04:50:00,70.0,68.3,29.80,WSW,247,0.0,3.1,93,0.00,,,-99.99,Homeseer,2013-02-08 09:50:00,
2013-02-08 05:00:00,69.8,68.1,29.80,NNE,22,0.0,1.3,93,0.00,,,-99.99,Homeseer,2013-02-08 10:00:00,
2013-02-08 05:10:00,69.8,68.1,29.80,WSW,247,0.0,0.0,93,0.00,,,-99.99,Homeseer,2013-02-08 10:10:00,
2013-02-08 05:20:00,70.0,68.3,29.80,North,0,2.2,2.2,93,0.00,,,-99.99,Homeseer,2013-02-08 10:20:00,
2013-02-08 05:30:00,70.0,68.6,29.80,WSW,247,0.0,0.0,94,0.00,,,-99.99,Homeseer,2013-02-08 10:30:00,
2013-02-08 05:40:00,70.0,68.8,29.80,WNW,297,0.0,0.0,95,0.00,,,-99.99,Homeseer,2013-02-08 10:40:00,
2013-02-08 05:50:00,70.0,68.8,29.80,WNW,297,1.3,0.0,95,0.00,,,-99.99,Homeseer,2013-02-08 10:50:00,
2013-02-08 06:00:00,70.2,69.0,29.80,WNW,297,0.0,0.0,95,0.00,,,-99.99,Homeseer,2013-02-08 11:00:00,
2013-02-08 06:10:00,70.0,68.8,29.80,WNW,297,0.0,2.2,95,0.00,,,-99.99,Homeseer,2013-02-08 11:10:00,
2013-02-08 06:20:00,69.8,68.6,29.80,WNW,297,1.3,1.3,95,0.00,,,-99.99,Homeseer,2013-02-08 11:20:00,
2013-02-08 06:30:00,69.6,68.7,29.83,WNW,297,0.0,0.0,96,0.00,,,-99.99,Homeseer,2013-02-08 11:30:00,
2013-02-08 06:40:00,69.6,68.7,29.83,North,0,1.3,1.3,96,0.00,,,-99.99,Homeseer,2013-02-08 11:40:00,
2013-02-08 06:50:00,69.6,68.9,29.83,WSW,247,0.9,0.0,97,0.00,,,-99.99,Homeseer,2013-02-08 11:50:00,
2013-02-08 07:00:00,69.6,68.9,29.83,North,0,0.9,0.0,97,0.00,,,-99.99,Homeseer,2013-02-08 12:00:00,
2013-02-08 07:10:00,69.6,68.9,29.83,South,180,1.6,2.9,97,0.00,,,-99.99,Homeseer,2013-02-08 12:10:00,
2013-02-08 07:20:00,69.8,69.1,29.83,NNE,22,1.1,0.0,97,0.00,,,-99.99,Homeseer,2013-02-08 12:20:00,
2013-02-08 07:30:00,69.8,69.1,29.83,West,270,0.0,0.0,97,0.00,,,-99.99,Homeseer,2013-02-08 12:30:00,
2013-02-08 07:40:00,70.0,69.3,29.83,WNW,297,0.9,3.4,97,0.00,,,-99.99,Homeseer,2013-02-08 12:40:00,
2013-02-08 07:50:00,70.2,69.7,29.83,WNW,297,1.1,2.9,98,0.00,,,-99.99,Homeseer,2013-02-08 12:50:00,
2013-02-08 08:00:00,70.5,70.0,29.85,North,0,2.0,3.1,98,0.00,,,-99.99,Homeseer,2013-02-08 13:00:00,
2013-02-08 08:10:00,71.1,70.6,29.85,WNW,297,1.3,1.6,98,0.00,,,-99.99,Homeseer,2013-02-08 13:10:00,
2013-02-08 08:20:00,71.4,70.9,29.85,WSW,247,0.9,2.9,98,0.00,,,-99.99,Homeseer,2013-02-08 13:20:00,
2013-02-08 08:31:00,72.0,71.3,29.85,WSW,247,1.1,2.0,97,0.00,,,-99.99,Homeseer,2013-02-08 13:31:00,
2013-02-08 08:40:00,72.5,71.6,29.85,North,0,0.0,0.0,96,0.00,,,-99.99,Homeseer,2013-02-08 13:40:00,
2013-02-08 08:50:00,72.9,71.5,29.85,North,0,4.0,6.0,94,0.00,,,-99.99,Homeseer,2013-02-08 13:50:00,
2013-02-08 09:00:00,73.2,71.3,29.85,North,0,2.7,2.7,92,0.00,,,-99.99,Homeseer,2013-02-08 14:00:00,
2013-02-08 09:10:00,73.8,70.8,29.85,WSW,247,4.7,4.7,88,0.00,,,-99.99,Homeseer,2013-02-08 14:10:00,
2013-02-08 09:20:00,74.5,70.4,29.85,WSW,247,3.4,4.0,84,0.00,,,-99.99,Homeseer,2013-02-08 14:20:00,
2013-02-08 09:30:00,75.0,69.8,29.85,North,0,6.7,8.7,80,0.00,,,-99.99,Homeseer,2013-02-08 14:30:00,
2013-02-08 09:40:00,75.6,68.9,29.85,North,0,3.6,3.6,75,0.00,,,-99.99,Homeseer,2013-02-08 14:40:00,
2013-02-08 09:50:00,75.7,68.1,29.88,North,0,4.3,5.6,72,0.00,,,-99.99,Homeseer,2013-02-08 14:50:00,
2013-02-08 10:00:00,76.5,68.2,29.88,North,0,4.0,4.0,70,0.00,,,-99.99,Homeseer,2013-02-08 15:00:00,
2013-02-08 10:10:00,77.0,68.0,29.88,WNW,297,4.5,4.5,68,0.00,,,-99.99,Homeseer,2013-02-08 15:10:00,
2013-02-08 10:20:00,77.5,68.5,29.85,West,270,4.3,9.8,68,0.00,,,-99.99,Homeseer,2013-02-08 15:20:00,
2013-02-08 10:30:00,77.7,68.0,29.88,WNW,297,5.8,8.1,66,0.00,,,-99.99,Homeseer,2013-02-08 15:30:00,
2013-02-08 10:40:00,77.9,68.2,29.88,North,0,6.0,6.0,66,0.00,,,-99.99,Homeseer,2013-02-08 15:40:00,
2013-02-08 10:50:00,78.6,68.9,29.88,North,0,4.7,5.6,66,0.00,,,-99.99,Homeseer,2013-02-08 15:50:00,
2013-02-08 11:00:00,78.8,68.7,29.88,NW,315,6.9,10.5,65,0.00,,,-99.99,Homeseer,2013-02-08 16:00:00,
2013-02-08 11:10:00,78.3,68.2,29.88,North,0,7.6,7.6,65,0.00,,,-99.99,Homeseer,2013-02-08 16:10:00,
2013-02-08 11:20:00,79.9,68.3,29.88,North,0,4.0,4.0,61,0.00,,,-99.99,Homeseer,2013-02-08 16:20:00,
2013-02-08 11:30:00,79.2,66.5,29.85,North,0,9.0,11.0,58,0.00,,,-99.99,Homeseer,2013-02-08 16:30:00,
2013-02-08 11:40:00,78.4,66.9,29.85,NW,315,4.7,8.7,61,0.00,,,-99.99,Homeseer,2013-02-08 16:40:00,
2013-02-08 11:50:00,78.6,67.5,29.85,WNW,297,4.5,6.3,62,0.00,,,-99.99,Homeseer,2013-02-08 16:50:00,
2013-02-08 12:00:00,79.5,67.2,29.85,North,0,7.4,7.4,59,0.00,,,-99.99,Homeseer,2013-02-08 17:00:00,
2013-02-08 12:10:00,80.1,66.6,29.85,NW,315,5.4,8.7,56,0.00,,,-99.99,Homeseer,2013-02-08 17:10:00,
2013-02-08 12:20:00,80.4,66.0,29.85,North,0,7.4,10.7,54,0.00,,,-99.99,Homeseer,2013-02-08 17:20:00,
2013-02-08 12:30:00,79.3,64.2,29.85,North,0,9.6,9.6,52,0.00,,,-99.99,Homeseer,2013-02-08 17:30:00,
2013-02-08 12:40:00,80.4,64.3,29.85,North,0,11.2,12.8,50,0.00,,,-99.99,Homeseer,2013-02-08 17:40:00,
2013-02-08 12:50:00,80.6,64.5,29.85,North,0,9.8,9.8,50,0.00,,,-99.99,Homeseer,2013-02-08 17:50:00,
2013-02-08 13:00:00,81.0,65.3,29.85,WNW,297,10.5,10.5,51,0.00,,,-99.99,Homeseer,2013-02-08 18:00:00,
2013-02-08 13:10:00,80.1,64.5,29.85,North,0,10.5,10.5,51,0.00,,,-99.99,Homeseer,2013-02-08 18:10:00,
2013-02-08 13:20:00,80.8,64.2,29.83,North,0,6.9,6.9,49,0.00,,,-99.99,Homeseer,2013-02-08 18:20:00,
2013-02-08 13:30:00,80.6,64.0,29.83,North,0,6.7,6.7,49,0.00,,,-99.99,Homeseer,2013-02-08 18:30:00,
2013-02-08 13:41:00,80.6,64.5,29.83,North,0,6.5,7.4,50,0.00,,,-99.99,Homeseer,2013-02-08 18:41:00,
2013-02-08 13:50:00,81.1,64.9,29.83,North,0,5.6,5.8,50,0.00,,,-99.99,Homeseer,2013-02-08 18:50:00,
2013-02-08 14:00:00,80.1,64.9,29.83,North,0,7.8,7.8,52,0.00,,,-99.99,Homeseer,2013-02-08 19:00:00,
2013-02-08 14:10:00,80.4,64.7,29.83,North,0,6.7,10.5,51,0.00,,,-99.99,Homeseer,2013-02-08 19:10:00,
2013-02-08 14:20:00,80.4,64.3,29.83,North,0,5.8,9.6,50,0.00,,,-99.99,Homeseer,2013-02-08 19:20:00,
2013-02-08 14:30:00,80.2,64.1,29.83,WNW,297,7.2,7.2,50,0.00,,,-99.99,Homeseer,2013-02-08 19:30:00,
2013-02-08 14:40:00,81.5,63.9,29.83,North,0,3.8,5.4,47,0.00,,,-99.99,Homeseer,2013-02-08 19:40:00,
2013-02-08 14:50:00,81.1,63.6,29.83,North,0,5.4,5.4,47,0.00,,,-99.99,Homeseer,2013-02-08 19:50:00,
2013-02-08 15:01:00,81.0,63.0,29.80,North,0,7.8,7.8,46,0.00,,,-99.99,Homeseer,2013-02-08 20:01:00,
2013-02-08 15:11:00,81.5,63.0,29.80,North,0,6.9,6.9,45,0.00,,,-99.99,Homeseer,2013-02-08 20:11:00,
2013-02-08 15:21:00,81.5,62.5,29.80,North,0,3.1,3.8,44,0.00,,,-99.99,Homeseer,2013-02-08 20:21:00,
2013-02-08 15:30:00,81.3,62.8,29.80,North,0,7.4,7.4,45,0.00,,,-99.99,Homeseer,2013-02-08 20:30:00,
2013-02-08 15:40:00,81.1,62.1,29.80,North,0,6.9,7.6,44,0.00,,,-99.99,Homeseer,2013-02-08 20:40:00,
2013-02-08 15:51:00,80.6,62.2,29.80,North,0,6.0,7.4,45,0.00,,,-99.99,Homeseer,2013-02-08 20:51:00,
2013-02-08 16:00:00,80.4,62.5,29.80,WNW,297,5.6,5.6,46,0.00,,,-99.99,Homeseer,2013-02-08 21:00:00,
2013-02-08 16:10:00,80.2,62.8,29.80,North,0,4.5,4.5,47,0.00,,,-99.99,Homeseer,2013-02-08 21:10:00,
2013-02-08 16:20:00,80.1,62.7,29.83,North,0,4.9,4.9,47,0.00,,,-99.99,Homeseer,2013-02-08 21:20:00,
2013-02-08 16:30:00,80.1,62.7,29.80,North,0,4.7,4.7,47,0.00,,,-99.99,Homeseer,2013-02-08 21:30:00,
2013-02-08 16:41:00,79.7,63.2,29.80,WNW,297,1.3,1.3,49,0.00,,,-99.99,Homeseer,2013-02-08 21:41:00,
2013-02-08 16:50:00,79.5,63.1,29.80,North,0,3.1,4.9,49,0.00,,,-99.99,Homeseer,2013-02-08 21:50:00,
2013-02-08 17:00:00,79.5,63.5,29.80,North,0,2.5,0.0,50,0.00,,,-99.99,Homeseer,2013-02-08 22:00:00,
2013-02-08 17:10:00,79.7,63.2,29.80,WNW,297,0.0,0.0,49,0.00,,,-99.99,Homeseer,2013-02-08 22:10:00,
2013-02-08 17:20:00,79.7,63.7,29.80,South,180,2.0,2.5,50,0.00,,,-99.99,Homeseer,2013-02-08 22:20:00,
2013-02-08 17:30:00,79.0,65.1,29.83,North,0,3.8,3.8,55,0.00,,,-99.99,Homeseer,2013-02-08 22:30:00,
2013-02-08 17:40:00,78.6,66.7,29.83,SE,135,1.6,2.0,60,0.00,,,-99.99,Homeseer,2013-02-08 22:40:00,
2013-02-08 17:50:00,78.1,66.6,29.83,South,180,3.6,3.6,61,0.00,,,-99.99,Homeseer,2013-02-08 22:50:00,
2013-02-08 18:00:00,77.7,67.3,29.83,North,0,1.3,2.7,64,0.00,,,-99.99,Homeseer,2013-02-08 23:00:00,
2013-02-08 18:10:00,77.4,67.7,29.83,North,0,4.0,4.0,66,0.00,,,-99.99,Homeseer,2013-02-08 23:10:00,
2013-02-08 18:20:00,77.0,67.4,29.83,South,180,2.7,3.6,66,0.00,,,-99.99,Homeseer,2013-02-08 23:20:00,
2013-02-08 18:31:00,76.6,67.3,29.83,North,0,2.0,0.0,67,0.00,,,-99.99,Homeseer,2013-02-08 23:31:00,
2013-02-08 18:40:00,76.5,68.2,29.83,SSE,157,1.3,0.0,70,0.00,,,-99.99,Homeseer,2013-02-08 23:40:00,
2013-02-08 18:50:00,76.5,68.2,29.83,South,180,3.4,3.4,70,0.00,,,-99.99,Homeseer,2013-02-08 23:50:00,
2013-02-08 19:00:00,76.1,68.5,29.83,North,0,3.4,3.8,72,0.00,,,-99.99,Homeseer,2013-02-09 00:00:00,
2013-02-08 19:10:00,75.9,68.6,29.83,North,0,1.6,1.6,73,0.00,,,-99.99,Homeseer,2013-02-09 00:10:00,
2013-02-08 19:20:00,75.7,68.7,29.83,SSE,157,0.0,1.3,74,0.00,,,-99.99,Homeseer,2013-02-09 00:20:00,
2013-02-08 19:30:00,75.6,69.2,29.83,WSW,247,1.3,2.0,76,0.00,,,-99.99,Homeseer,2013-02-09 00:30:00,
2013-02-08 19:40:00,75.6,69.5,29.83,WSW,247,0.0,0.0,77,0.00,,,-99.99,Homeseer,2013-02-09 00:40:00,
2013-02-08 19:50:00,75.4,69.6,29.85,North,0,0.0,0.0,78,0.00,,,-99.99,Homeseer,2013-02-09 00:50:00,
2013-02-08 20:00:00,75.2,69.7,29.85,North,0,0.0,0.0,79,0.00,,,-99.99,Homeseer,2013-02-09 01:00:00,
2013-02-08 20:10:00,75.2,70.0,29.85,ESE,112,0.0,0.9,80,0.00,,,-99.99,Homeseer,2013-02-09 01:10:00,
2013-02-08 20:21:00,75.0,69.8,29.85,North,0,0.0,0.0,80,0.00,,,-99.99,Homeseer,2013-02-09 01:21:00,
2013-02-08 20:31:00,75.0,70.1,29.85,North,0,0.0,0.0,81,0.00,,,-99.99,Homeseer,2013-02-09 01:31:00,
2013-02-08 20:41:00,74.8,69.9,29.85,North,0,1.1,2.0,81,0.00,,,-99.99,Homeseer,2013-02-09 01:41:00,
2013-02-08 20:50:00,74.7,70.1,29.85,WSW,247,0.0,0.0,82,0.00,,,-99.99,Homeseer,2013-02-09 01:50:00,
2013-02-08 21:00:00,74.5,69.9,29.85,South,180,0.0,0.0,82,0.00,,,-99.99,Homeseer,2013-02-09 02:00:00,
2013-02-08 21:10:00,74.5,70.2,29.85,SSE,157,0.0,0.0,83,0.00,,,-99.99,Homeseer,2013-02-09 02:10:00,
2013-02-08 21:20:00,74.5,70.4,29.85,North,0,0.0,0.0,84,0.00,,,-99.99,Homeseer,2013-02-09 02:20:00,
2013-02-08 21:30:00,74.3,70.3,29.85,North,0,0.0,0.0,84,0.00,,,-99.99,Homeseer,2013-02-09 02:30:00,
2013-02-08 21:40:00,74.1,70.3,29.85,North,0,0.0,0.0,85,0.00,,,-99.99,Homeseer,2013-02-09 02:40:00,
2013-02-08 21:50:00,73.9,70.4,29.85,WNW,297,0.0,0.0,86,0.00,,,-99.99,Homeseer,2013-02-09 02:50:00,
2013-02-08 22:00:00,73.6,70.4,29.88,WNW,297,0.0,0.0,87,0.00,,,-99.99,Homeseer,2013-02-09 03:00:00,
2013-02-08 22:10:00,73.6,70.6,29.88,WNW,297,0.0,0.0,88,0.00,,,-99.99,Homeseer,2013-02-09 03:10:00,
2013-02-08 22:21:00,73.4,70.4,29.88,WNW,297,0.0,0.0,88,0.00,,,-99.99,Homeseer,2013-02-09 03:21:00,
2013-02-08 22:30:00,73.0,70.3,29.88,WNW,297,0.0,0.0,89,0.00,,,-99.99,Homeseer,2013-02-09 03:30:00,
2013-02-08 22:41:00,72.7,70.0,29.88,WNW,297,0.0,0.0,89,0.00,,,-99.99,Homeseer,2013-02-09 03:41:00,
2013-02-08 22:50:00,72.5,69.8,29.88,WNW,297,0.0,0.0,89,0.00,,,-99.99,Homeseer,2013-02-09 03:50:00,
2013-02-08 23:01:00,72.3,69.6,29.88,WNW,297,0.0,0.0,89,0.00,,,-99.99,Homeseer,2013-02-09 04:01:00,
2013-02-08 23:11:00,72.1,69.7,29.88,WNW,297,0.0,0.0,90,0.00,,,-99.99,Homeseer,2013-02-09 04:11:00,
2013-02-08 23:21:00,72.0,69.6,29.88,WNW,297,0.0,0.0,90,0.00,,,-99.99,Homeseer,2013-02-09 04:21:00,
2013-02-08 23:31:00,71.8,69.4,29.88,North,0,0.0,0.0,90,0.00,,,-99.99,Homeseer,2013-02-09 04:31:00,
2013-02-08 23:41:00,71.8,69.6,29.88,North,0,0.0,1.6,91,0.00,,,-99.99,Homeseer,2013-02-09 04:41:00,
2013-02-08 23:51:00,71.4,70.0,29.88,North,0,1.1,1.1,94,0.00,,,-99.99,Homeseer,2013-02-09 04:51:00,